Ana Sayfa
METAR-TAF:

METAR-TAF

Havaalanları :

San Marcos Municipal Airport

San Marcos, Teksas, Amerika Birleşik Devletleri

Enlem: 29-53-37N, Boylam: 097-51-53W, yükseklik: 182 m

Güncel hava durumu gözlemi

Rapor saat 08:56 UTC de 39 dakika önce yapıldı.
Rüzgar kuzeydan 9 kt
Sıcaklık 9°C
Nem 71%
Basınç 1026 hPa
Görüş mesafesi: 16.1 km
Açık gökyüzü

METAR: KHYI 070856Z AUTO 36009KT 10SM CLR 09/04 A3030 RMK AO2 SLP256 6//// T00940039 56005 PNO $

Saat: 03:35 (09:35 UTC)


TAF: eksik

4.000'den fazla havaalanı için hava durumu gözlemleri ve tahminleri (METAR ve TAF raporları).

Kullanılabilir istasyonlar harita üzerinde sarı ve kırmızı noktalarla gösterilir.

İstasyonun adını görmek için fareyi noktanın üzerinde gezdirin.

Sonrasında hava gözlem ve tahminlerini görmek için tıklayın.

Haritayı değiştirmek için: yaklaştırmak için siyah artı işaretli yeşil düğmeye ve uzaklaştırmak için de eksi işaretli düğmeye hızla tıklayın; bitişik haritalar için yeşil okları kullanın.


METAR-TAF: